Time;durP1;ratioP1;P1;durP2;ratioP2;P2;SDS_P1;SDS_P2;PMS_P1;PMS_P2;Temp;Humidity;BMP_temperature;BMP_pressure;BME280_temperature;BME280_humidity;BME280_pressure;Samples;Min_cycle;Max_cycle;Signal;HPM_P1;HPM_P2
2022/06/30 00:02:22;;;;;;;4.53;3.90;;;;;;;26.54;49.71;99437.03;4393948;32;34359;-85
2022/06/30 00:04:50;;;;;;;5.45;4.07;;;;;;;26.41;49.79;99434.03;4380055;32;33461;-86
2022/06/30 00:07:19;;;;;;;4.90;3.30;;;;;;;26.39;49.01;99430.63;4381110;32;33670;-87
2022/06/30 00:09:47;;;;;;;5.70;3.53;;;;;;;26.49;48.65;99431.28;4393226;32;31744;-87
2022/06/30 00:12:15;;;;;;;5.32;3.75;;;;;;;26.45;48.79;99440.81;4393879;32;34163;-87
2022/06/30 00:14:43;;;;;;;4.90;3.10;;;;;;;26.20;48.21;99438.16;4406659;32;33740;-87
2022/06/30 00:17:11;;;;;;;6.95;3.30;;;;;;;26.09;48.51;99438.56;4388176;32;32646;-85
2022/06/30 00:19:40;;;;;;;3.42;3.10;;;;;;;26.02;48.91;99445.69;4381276;32;33364;-85
2022/06/30 00:22:08;;;;;;;5.55;3.20;;;;;;;26.25;48.29;99446.63;4394274;32;33569;-85
2022/06/30 00:24:36;;;;;;;6.72;3.15;;;;;;;26.16;48.40;99436.84;4380886;32;32736;-84
2022/06/30 00:27:07;;;;;;;4.47;3.08;;;;;;;26.12;48.61;99440.94;4380936;32;34598;-85
2022/06/30 00:29:35;;;;;;;6.43;3.62;;;;;;;25.93;49.08;99442.19;4393846;32;32713;-85
2022/06/30 00:32:04;;;;;;;4.80;3.37;;;;;;;25.95;49.19;99445.53;4392906;32;33952;-84
2022/06/30 00:34:32;;;;;;;12.00;4.45;;;;;;;26.25;48.58;99443.03;4393372;32;34467;-84
2022/06/30 00:37:00;;;;;;;5.87;3.33;;;;;;;26.07;49.10;99451.44;4393756;32;32949;-86
2022/06/30 00:39:29;;;;;;;5.03;3.80;;;;;;;25.99;49.64;99444.19;4394107;32;33204;-86
2022/06/30 00:41:57;;;;;;;3.58;3.00;;;;;;;25.66;50.54;99448.81;4394502;32;34527;-86
2022/06/30 00:44:26;;;;;;;8.50;3.28;;;;;;;25.95;49.86;99444.69;4381492;32;34242;-85
2022/06/30 00:46:54;;;;;;;5.97;3.80;;;;;;;26.13;49.34;99439.06;4396880;32;33611;-85
2022/06/30 00:49:22;;;;;;;7.82;4.22;;;;;;;25.62;50.80;99435.81;4416505;32;33334;-85
2022/06/30 00:51:50;;;;;;;6.80;3.70;;;;;;;25.24;52.15;99452.56;4395793;32;33475;-84
2022/06/30 00:54:22;;;;;;;4.25;3.65;;;;;;;25.22;52.20;99438.41;4396270;32;33651;-86
2022/06/30 00:56:50;;;;;;;4.87;3.70;;;;;;;25.18;52.46;99445.16;4397161;32;34280;-87
2022/06/30 00:59:19;;;;;;;9.85;4.03;;;;;;;25.07;52.75;99445.50;4408098;32;32978;-90
2022/06/30 01:01:47;;;;;;;4.68;3.87;;;;;;;24.84;53.24;99449.84;4408737;32;33038;-88
2022/06/30 01:04:16;;;;;;;4.93;4.37;;;;;;;25.18;52.26;99438.91;4408980;32;34179;-87
2022/06/30 01:06:45;;;;;;;4.97;3.80;;;;;;;25.08;52.94;99444.47;4396519;32;33882;-87
2022/06/30 01:14:50;;;;;;;5.53;3.67;;;;;;;25.00;52.75;99445.28;4410519;32;34003;-87
2022/06/30 01:17:19;;;;;;;4.12;3.72;;;;;;;25.15;52.35;99437.37;4396066;32;33305;-87
2022/06/30 01:19:52;;;;;;;5.50;3.78;;;;;;;24.87;53.13;99434.12;4408712;32;32399;-88
2022/06/30 01:22:20;;;;;;;6.25;3.97;;;;;;;24.63;53.94;99436.78;4407937;32;32861;-87
2022/06/30 01:24:48;;;;;;;4.20;3.72;;;;;;;24.69;53.48;99439.69;4420740;32;34006;-88
2022/06/30 01:27:17;;;;;;;4.65;4.18;;;;;;;24.68;53.71;99443.38;4383753;32;33046;-88
2022/06/30 01:29:45;;;;;;;5.82;3.62;;;;;;;25.14;52.43;99441.09;4406859;32;33352;-88
2022/06/30 01:32:13;;;;;;;4.10;3.70;;;;;;;24.91;53.08;99457.09;4395721;32;33940;-88
2022/06/30 01:34:41;;;;;;;6.60;4.43;;;;;;;24.86;53.44;99442.41;4408586;32;33690;-86
2022/06/30 01:37:09;;;;;;;7.10;3.95;;;;;;;24.33;54.75;99454.41;4420116;32;33988;-87
2022/06/30 01:39:37;;;;;;;4.82;3.80;;;;;;;24.38;54.75;99444.00;4395618;32;32394;-86
2022/06/30 01:42:05;;;;;;;6.50;3.35;;;;;;;24.47;54.36;99445.72;4418681;32;33957;-88
2022/06/30 01:44:34;;;;;;;5.15;4.15;;;;;;;24.47;54.35;99451.09;4408192;32;34114;-86
2022/06/30 01:47:01;;;;;;;7.53;4.35;;;;;;;24.42;54.30;99453.47;4420915;32;33911;-88
2022/06/30 01:49:32;;;;;;;4.45;3.75;;;;;;;24.27;54.61;99455.91;4399781;32;33125;-89
2022/06/30 01:52:01;;;;;;;5.07;3.72;;;;;;;24.45;54.01;99453.09;4401145;32;33854;-87
2022/06/30 01:54:29;;;;;;;7.78;4.40;;;;;;;24.71;53.24;99463.81;4394877;32;34470;-88
2022/06/30 01:56:57;;;;;;;9.23;4.20;;;;;;;24.50;53.96;99461.59;4398286;32;33029;-87
2022/06/30 01:59:25;;;;;;;4.82;4.40;;;;;;;24.60;53.61;99467.69;4392849;32;32809;-87
2022/06/30 02:01:53;;;;;;;4.00;3.60;;;;;;;24.24;54.78;99464.31;4385064;32;32650;-87
2022/06/30 02:07:07;;;;;;;4.05;3.65;;;;;;;24.11;54.99;99470.16;4409255;32;34550;-88
2022/06/30 02:09:35;;;;;;;7.70;3.85;;;;;;;23.99;55.31;99466.91;4392163;32;32874;-87
2022/06/30 02:14:50;;;;;;;5.30;3.70;;;;;;;24.04;55.05;99469.13;4394359;32;34068;-89
2022/06/30 02:17:18;;;;;;;5.20;3.95;;;;;;;23.99;55.30;99466.06;4392466;32;32789;-87
2022/06/30 02:19:46;;;;;;;7.45;4.32;;;;;;;24.01;54.96;99469.44;4392524;32;33349;-86
2022/06/30 02:22:15;;;;;;;6.90;3.83;;;;;;;24.13;54.52;99462.78;4395550;32;33940;-86
2022/06/30 02:24:43;;;;;;;5.18;4.12;;;;;;;23.96;55.05;99458.28;4388136;32;34214;-86
2022/06/30 02:27:12;;;;;;;5.15;3.70;;;;;;;23.89;55.15;99468.03;4400257;32;33624;-88
2022/06/30 02:29:41;;;;;;;6.75;3.67;;;;;;;24.07;54.55;99457.16;4386717;32;32672;-87
2022/06/30 02:32:09;;;;;;;6.90;4.43;;;;;;;24.04;54.43;99469.13;4379746;32;33743;-87
2022/06/30 02:34:37;;;;;;;4.78;3.83;;;;;;;24.05;54.40;99465.41;4406713;32;33924;-87
2022/06/30 02:37:05;;;;;;;5.75;4.07;;;;;;;23.90;55.01;99467.87;4397390;32;33713;-88
2022/06/30 02:39:33;;;;;;;8.02;4.47;;;;;;;23.77;55.24;99475.53;4396566;32;32482;-87
2022/06/30 02:42:01;;;;;;;10.40;3.75;;;;;;;24.13;53.78;99472.72;4392335;32;34071;-87
2022/06/30 02:44:30;;;;;;;4.57;3.45;;;;;;;23.69;54.84;99460.19;4412146;32;33237;-86
2022/06/30 02:46:58;;;;;;;8.30;4.00;;;;;;;23.73;54.71;99461.53;4392143;32;34596;-86
2022/06/30 02:49:26;;;;;;;5.65;3.90;;;;;;;23.72;54.73;99459.84;4385918;32;32891;-86
2022/06/30 02:51:57;;;;;;;6.87;4.40;;;;;;;23.51;55.21;99462.06;4402596;32;34426;-86
2022/06/30 02:54:25;;;;;;;6.68;3.90;;;;;;;23.66;54.65;99463.19;4403541;32;34804;-88
2022/06/30 02:56:54;;;;;;;8.05;4.05;;;;;;;23.82;53.95;99448.09;4389084;32;32457;-86
2022/06/30 02:59:22;;;;;;;4.68;3.30;;;;;;;23.55;54.69;99457.16;4407133;32;32135;-86
2022/06/30 03:01:50;;;;;;;4.07;3.62;;;;;;;23.62;54.62;99459.09;4382156;32;32304;-86
2022/06/30 03:04:18;;;;;;;5.87;3.95;;;;;;;23.94;53.54;99461.16;4382083;32;34457;-87
2022/06/30 03:06:47;;;;;;;6.87;4.18;;;;;;;23.45;55.20;99468.06;4388756;32;34561;-87
2022/06/30 03:09:16;;;;;;;4.55;3.95;;;;;;;23.74;54.31;99467.81;4387052;32;32711;-88
2022/06/30 03:11:46;;;;;;;7.37;3.72;;;;;;;23.43;55.57;99468.22;4382647;32;32238;-88
2022/06/30 03:14:18;;;;;;;7.07;4.82;;;;;;;23.40;55.29;99481.16;4395597;32;34143;-88
2022/06/30 03:16:47;;;;;;;10.80;3.90;;;;;;;23.24;55.99;99485.41;4416050;32;33618;-89
2022/06/30 03:19:16;;;;;;;5.32;3.90;;;;;;;23.31;55.71;99482.97;4405353;32;33238;-88
2022/06/30 03:21:43;;;;;;;7.62;4.00;;;;;;;23.53;55.05;99484.28;4393340;32;34329;-88
2022/06/30 03:24:11;;;;;;;7.53;4.32;;;;;;;23.58;54.92;99481.97;4386314;32;33904;-88
2022/06/30 03:26:40;;;;;;;8.40;4.37;;;;;;;23.27;56.36;99494.22;4390812;32;34116;-88
2022/06/30 03:29:08;;;;;;;5.60;4.45;;;;;;;23.76;54.17;99490.87;4389494;32;33328;-89
2022/06/30 03:31:37;;;;;;;8.52;4.30;;;;;;;23.36;55.68;99504.00;4403899;32;33824;-88
2022/06/30 03:34:05;;;;;;;12.70;4.45;;;;;;;23.17;56.42;99495.12;4397597;32;33865;-89
2022/06/30 03:36:33;;;;;;;8.40;4.55;;;;;;;23.39;55.61;99503.72;4374295;32;33103;-88
2022/06/30 03:39:01;;;;;;;7.07;4.75;;;;;;;23.33;56.03;99496.28;4400977;32;33496;-89
2022/06/30 03:41:29;;;;;;;7.03;4.47;;;;;;;23.57;55.29;99503.69;4381759;32;32961;-88
2022/06/30 03:43:57;;;;;;;7.10;4.70;;;;;;;23.50;56.00;99507.03;4400342;32;33230;-88
2022/06/30 03:46:26;;;;;;;5.72;4.25;;;;;;;23.66;55.19;99505.47;4393401;32;33772;-88
2022/06/30 03:48:55;;;;;;;6.40;4.37;;;;;;;23.76;54.65;99512.44;4399840;32;33434;-88
2022/06/30 03:51:22;;;;;;;6.03;4.53;;;;;;;23.83;54.68;99509.09;4381743;32;33070;-88
2022/06/30 03:53:53;;;;;;;5.03;4.50;;;;;;;24.08;54.48;99502.88;4417087;32;33927;-89
2022/06/30 03:56:21;;;;;;;5.47;4.25;;;;;;;23.43;56.45;99518.56;4385757;32;34241;-89
2022/06/30 03:58:49;;;;;;;6.05;4.00;;;;;;;23.94;54.90;99514.25;4385657;32;32696;-88
2022/06/30 04:01:17;;;;;;;6.68;4.00;;;;;;;23.71;55.68;99519.31;4391617;32;33940;-88
2022/06/30 04:03:47;;;;;;;5.78;4.15;;;;;;;23.90;55.69;99516.41;4390730;32;33711;-88
2022/06/30 04:06:15;;;;;;;7.32;4.65;;;;;;;24.15;55.09;99519.25;4393947;32;33379;-88
2022/06/30 04:08:43;;;;;;;6.10;4.20;;;;;;;24.18;54.97;99514.38;4414412;32;32879;-88
2022/06/30 04:11:11;;;;;;;4.47;4.05;;;;;;;24.15;55.28;99514.69;4389885;32;34127;-88
2022/06/30 04:13:39;;;;;;;4.80;4.07;;;;;;;24.41;55.02;99524.62;4400452;32;33961;-88
2022/06/30 04:16:06;;;;;;;8.85;4.53;;;;;;;24.89;53.09;99520.41;4390536;32;33111;-88
2022/06/30 04:18:39;;;;;;;8.70;4.97;;;;;;;24.89;53.43;99517.69;4383340;32;32779;-87
2022/06/30 04:21:07;;;;;;;6.50;4.07;;;;;;;24.97;53.20;99513.16;4394751;32;32481;-87
2022/06/30 04:23:36;;;;;;;4.90;4.35;;;;;;;25.16;53.12;99513.87;4406528;32;33775;-87
2022/06/30 04:26:04;;;;;;;6.87;4.55;;;;;;;25.27;52.17;99513.56;4394943;32;33245;-87
2022/06/30 04:28:31;;;;;;;8.10;4.25;;;;;;;25.35;51.53;99508.13;4397266;32;32743;-87
2022/06/30 04:33:49;;;;;;;4.05;3.60;;;;;;;26.03;49.69;99504.19;4397666;32;33691;-87
2022/06/30 04:36:17;;;;;;;4.70;3.67;;;;;;;26.12;50.11;99511.28;4396581;32;33391;-86
2022/06/30 04:38:45;;;;;;;7.07;4.15;;;;;;;26.14;50.00;99519.22;4395288;32;33308;-86
2022/06/30 04:41:24;;;;;;;7.95;4.53;;;;;;;26.11;50.67;99517.72;4399393;32;33132;-87
2022/06/30 04:43:58;;;;;;;7.80;3.78;;;;;;;25.96;50.92;99524.84;4413823;32;33479;-87
2022/06/30 04:46:28;;;;;;;5.03;3.80;;;;;;;26.40;49.68;99508.97;4397872;32;33646;-87
2022/06/30 04:48:56;;;;;;;6.57;4.35;;;;;;;26.26;49.80;99510.56;4378695;32;32367;-86
2022/06/30 04:51:24;;;;;;;15.00;5.82;;;;;;;26.54;50.40;99512.84;4408699;32;33108;-86
2022/06/30 04:53:52;;;;;;;5.85;4.80;;;;;;;26.54;49.93;99499.31;4396158;32;33912;-86
2022/06/30 04:56:21;;;;;;;8.15;4.70;;;;;;;26.67;48.31;99504.97;4400646;32;33112;-87
2022/06/30 04:58:49;;;;;;;6.80;4.07;;;;;;;26.89;47.36;99497.91;4408749;32;32267;-87
2022/06/30 05:01:17;;;;;;;6.50;4.00;;;;;;;27.23;49.44;99508.34;4408698;32;33988;-88
2022/06/30 05:03:49;;;;;;;5.15;4.20;;;;;;;27.13;47.42;99499.63;4409113;32;34017;-88
2022/06/30 05:06:18;;;;;;;5.37;4.85;;;;;;;27.25;45.50;99500.91;4420821;32;32878;-87
2022/06/30 05:08:48;;;;;;;4.75;4.32;;;;;;;27.37;46.57;99497.75;4421033;32;31930;-89
2022/06/30 05:11:15;;;;;;;8.15;4.50;;;;;;;27.79;45.97;99500.75;4396133;32;33805;-88
2022/06/30 05:13:44;;;;;;;8.40;4.30;;;;;;;28.00;47.10;99488.31;4406163;32;34068;-88
2022/06/30 05:16:16;;;;;;;11.27;4.78;;;;;;;28.01;46.02;99490.87;4403011;32;34067;-88
2022/06/30 05:18:47;;;;;;;10.52;4.70;;;;;;;28.01;44.22;99498.16;4383378;32;33131;-88
2022/06/30 05:21:15;;;;;;;8.00;4.50;;;;;;;28.33;43.91;99500.47;4397321;32;33871;-88
2022/06/30 05:26:28;;;;;;;8.00;4.28;;;;;;;28.70;42.37;99493.25;4408436;32;35056;-87
2022/06/30 05:26:33;;;;;;;6.95;4.53;;;;;;;28.84;42.03;99503.22;4411324;32;32734;-87
2022/06/30 05:29:01;;;;;;;8.15;4.93;;;;;;;29.04;40.16;99508.06;4408044;32;34200;-88
2022/06/30 05:31:29;;;;;;;5.62;3.92;;;;;;;29.27;41.25;99500.56;4422164;32;34252;-86
2022/06/30 05:33:57;;;;;;;8.95;4.05;;;;;;;29.23;40.55;99501.97;4408445;32;33999;-85
2022/06/30 05:36:26;;;;;;;6.07;3.33;;;;;;;28.91;37.57;99506.00;4408946;32;33909;-89
2022/06/30 05:39:26;;;;;;;7.95;3.58;;;;;;;29.13;37.83;99497.91;4403387;32;34411;-89
2022/06/30 05:41:54;;;;;;;6.35;4.03;;;;;;;29.40;38.02;99496.28;4404699;32;32227;-89
2022/06/30 05:44:22;;;;;;;5.03;2.85;;;;;;;29.65;38.53;99491.28;4395823;32;33205;-89
2022/06/30 05:46:51;;;;;;;4.20;2.92;;;;;;;29.92;38.53;99497.75;4400983;32;31928;-89
2022/06/30 05:49:21;;;;;;;4.85;3.30;;;;;;;30.23;36.76;99498.16;4406732;32;32204;-89
2022/06/30 05:51:52;;;;;;;;;;;;;;;29.85;36.50;99503.16;4395476;32;33848;-89
2022/06/30 05:54:19;;;;;;;4.70;3.17;;;;;;;30.12;34.57;99490.56;4419334;32;33130;-89
2022/06/30 05:56:48;;;;;;;10.10;3.03;;;;;;;30.52;36.57;99494.31;4383703;32;32778;-89
2022/06/30 05:59:16;;;;;;;8.07;3.22;;;;;;;30.72;35.76;99486.28;4407284;32;33778;-89
2022/06/30 06:01:45;;;;;;;8.88;3.05;;;;;;;30.50;34.98;99490.13;4392212;32;33362;-89
2022/06/30 06:04:22;;;;;;;6.68;2.78;;;;;;;30.76;35.43;99492.97;4418690;32;33945;-89
2022/06/30 06:06:51;;;;;;;4.97;2.97;;;;;;;30.77;34.77;99496.56;4398884;32;32051;-89
2022/06/30 06:09:21;;;;;;;6.65;3.42;;;;;;;30.94;34.31;99488.81;4382376;32;32438;-90
2022/06/30 06:11:51;;;;;;;5.55;3.08;;;;;;;30.93;34.19;99495.34;4418092;32;33804;-90
2022/06/30 06:14:20;;;;;;;3.97;2.70;;;;;;;30.81;31.88;99493.22;4393596;32;33990;-90
2022/06/30 06:16:49;;;;;;;9.13;3.03;;;;;;;31.10;30.94;99492.03;4396242;32;33793;-90
2022/06/30 06:19:22;;;;;;;3.37;3.08;;;;;;;31.04;30.18;99492.00;4388749;32;34221;-90
2022/06/30 06:21:51;;;;;;;3.53;2.80;;;;;;;31.07;30.29;99488.88;4406670;32;33282;-90
2022/06/30 06:24:20;;;;;;;6.93;3.03;;;;;;;31.23;29.91;99496.63;4395962;32;33788;-90
2022/06/30 06:26:49;;;;;;;8.65;3.22;;;;;;;31.56;29.59;99491.22;4398702;32;33811;-90
2022/06/30 06:29:18;;;;;;;4.15;2.70;;;;;;;31.63;29.44;99496.69;4381914;32;32876;-90
2022/06/30 06:31:46;;;;;;;3.35;2.75;;;;;;;31.66;28.53;99490.78;4394929;32;32178;-90
2022/06/30 06:34:15;;;;;;;5.78;2.53;;;;;;;31.47;28.79;99487.03;4399024;32;33342;-90
2022/06/30 06:36:44;;;;;;;5.15;3.08;;;;;;;31.66;29.00;99485.34;4393765;32;33041;-89
2022/06/30 06:39:13;;;;;;;4.15;2.67;;;;;;;31.10;29.29;99485.72;4408852;32;33403;-90
2022/06/30 06:41:41;;;;;;;4.30;2.70;;;;;;;31.63;28.50;99491.25;4387679;32;33319;-90
2022/06/30 06:44:09;;;;;;;5.93;3.05;;;;;;;31.56;29.50;99487.66;4410329;32;33726;-89
2022/06/30 06:46:38;;;;;;;7.60;3.37;;;;;;;31.56;29.07;99490.37;4420392;32;33071;-89
2022/06/30 06:49:08;;;;;;;3.15;2.47;;;;;;;31.53;28.69;99485.38;4394718;32;31763;-90
2022/06/30 06:51:38;;;;;;;4.97;2.60;;;;;;;31.42;27.93;99485.97;4374881;32;33082;-90
2022/06/30 06:54:09;;;;;;;4.93;3.03;;;;;;;31.59;28.09;99477.16;4389816;32;33894;-90
2022/06/30 06:56:38;;;;;;;4.45;2.80;;;;;;;31.62;28.96;99479.47;4408139;32;33770;-90
2022/06/30 06:59:06;;;;;;;4.68;2.67;;;;;;;31.73;27.82;99475.25;4387984;32;33655;-90
2022/06/30 07:01:36;;;;;;;3.10;2.80;;;;;;;32.25;28.43;99473.50;4395710;32;32899;-90
2022/06/30 07:04:05;;;;;;;10.10;2.85;;;;;;;32.00;28.04;99478.81;4404444;32;34679;-90
2022/06/30 07:06:34;;;;;;;3.70;2.75;;;;;;;32.05;27.78;99484.47;4398245;32;33668;-90
2022/06/30 07:09:03;;;;;;;7.37;3.42;;;;;;;32.63;28.98;99478.19;4384295;32;32820;-90
2022/06/30 07:11:33;;;;;;;7.18;3.05;;;;;;;32.71;27.48;99472.47;4397678;32;32074;-90
2022/06/30 07:16:42;;;;;;;6.27;2.73;;;;;;;32.63;28.05;99470.00;4398753;32;32199;-90
2022/06/30 07:19:16;;;;;;;5.30;3.00;;;;;;;32.61;27.06;99477.56;4402019;32;32225;-90
2022/06/30 07:21:46;;;;;;;7.60;2.90;;;;;;;32.80;27.60;99476.59;4413128;32;33172;-89
2022/06/30 07:24:15;;;;;;;3.67;3.30;;;;;;;32.30;27.67;99476.41;4397422;32;33908;-90
2022/06/30 07:26:49;;;;;;;14.23;3.08;;;;;;;32.57;27.67;99465.38;4409288;32;35212;-90
2022/06/30 07:29:17;;;;;;;3.53;2.80;;;;;;;32.70;28.18;99470.78;4388862;32;32453;-90
2022/06/30 07:31:49;;;;;;;3.30;2.80;;;;;;;32.51;29.32;99460.78;4388378;32;33187;-90
2022/06/30 07:34:21;;;;;;;9.57;3.42;;;;;;;32.86;27.65;99463.97;4402634;32;33437;-89
2022/06/30 07:36:50;;;;;;;6.12;3.12;;;;;;;33.18;28.05;99472.19;4387534;32;33243;-90
2022/06/30 07:39:18;;;;;;;7.03;3.20;;;;;;;33.04;26.55;99463.25;4389242;32;33416;-89
2022/06/30 07:41:59;;;;;;;14.43;3.30;;;;;;;33.27;28.04;99460.75;4400675;32;33994;-89
2022/06/30 07:44:28;;;;;;;5.82;3.25;;;;;;;33.04;27.53;99460.50;4392166;32;34770;-89
2022/06/30 07:47:00;;;;;;;11.43;3.62;;;;;;;33.56;27.64;99458.44;4407094;32;33877;-90
2022/06/30 07:49:31;;;;;;;5.65;2.90;;;;;;;33.14;27.45;99458.16;4392163;32;33035;-90
2022/06/30 07:52:00;;;;;;;6.30;2.92;;;;;;;33.57;25.67;99460.13;4409128;32;33542;-90
2022/06/30 07:54:32;;;;;;;4.10;2.30;;;;;;;33.50;25.73;99453.88;4396586;32;33022;-89
2022/06/30 07:57:00;;;;;;;9.23;3.75;;;;;;;32.94;27.61;99458.25;4382898;32;33676;-89
2022/06/30 07:59:49;;;;;;;6.40;3.22;;;;;;;32.97;26.55;99459.72;4398234;32;32526;-90
2022/06/30 08:02:19;;;;;;;8.98;3.10;;;;;;;33.29;27.90;99452.34;4407704;32;35395;-89
2022/06/30 08:04:49;;;;;;;6.43;2.95;;;;;;;33.55;26.91;99448.56;4403252;32;32222;-90
2022/06/30 08:07:18;;;;;;;3.17;2.87;;;;;;;33.78;26.22;99446.00;4395522;32;33293;-89
2022/06/30 08:09:50;;;;;;;17.15;3.35;;;;;;;33.59;25.54;99453.34;4421760;32;32900;-90
2022/06/30 08:12:21;;;;;;;6.20;2.85;;;;;;;33.87;25.86;99447.38;4401674;32;32794;-89
2022/06/30 08:14:51;;;;;;;3.25;2.65;;;;;;;34.05;26.39;99452.06;4421130;32;34623;-89
2022/06/30 08:17:23;;;;;;;3.75;2.80;;;;;;;34.48;25.31;99442.09;4409439;32;33927;-90
2022/06/30 08:19:53;;;;;;;7.60;2.92;;;;;;;34.31;26.39;99445.44;4408493;32;32291;-89
2022/06/30 08:22:21;;;;;;;5.80;2.87;;;;;;;33.92;25.82;99451.34;4421549;32;34488;-90
2022/06/30 08:24:49;;;;;;;7.18;2.58;;;;;;;34.05;25.20;99441.12;4408690;32;32966;-90
2022/06/30 08:27:17;;;;;;;5.82;3.15;;;;;;;34.07;26.12;99454.59;4400562;32;33609;-89
2022/06/30 08:29:47;;;;;;;8.27;3.40;;;;;;;34.56;25.47;99437.09;4408056;32;32872;-89
2022/06/30 08:32:15;;;;;;;4.20;2.87;;;;;;;34.36;25.45;99431.88;4396146;32;32950;-89
2022/06/30 08:34:44;;;;;;;4.47;3.17;;;;;;;34.85;26.03;99429.13;4409067;32;35044;-89
2022/06/30 08:37:13;;;;;;;7.05;2.80;;;;;;;34.68;25.83;99426.22;4396351;32;33021;-89
2022/06/30 08:42:32;;;;;;;9.80;2.80;;;;;;;34.72;24.88;99419.19;4410447;32;34293;-90
2022/06/30 08:45:14;;;;;;;4.97;2.65;;;;;;;34.67;26.12;99430.03;4408958;32;34405;-90
2022/06/30 08:47:42;;;;;;;5.12;2.75;;;;;;;34.85;24.47;99415.41;4410322;32;34066;-90
2022/06/30 08:50:13;;;;;;;3.90;2.35;;;;;;;34.67;23.61;99421.78;4407682;32;33419;-90
2022/06/30 08:52:51;;;;;;;5.37;2.55;;;;;;;34.67;23.68;99427.28;4396626;32;33234;-89
2022/06/30 08:55:28;;;;;;;8.80;2.62;;;;;;;34.79;23.44;99422.66;4396413;32;33235;-90
2022/06/30 08:58:03;;;;;;;5.00;2.70;;;;;;;35.10;23.20;99428.97;4395360;32;32542;-90
2022/06/30 09:00:36;;;;;;;6.03;2.92;;;;;;;35.18;23.47;99423.13;4407159;32;33605;-89
2022/06/30 09:03:06;;;;;;;4.30;2.22;;;;;;;34.92;24.42;99429.03;4408646;32;34227;-90
2022/06/30 09:05:35;;;;;;;4.28;3.12;;;;;;;35.21;23.94;99419.91;4408797;32;34297;-90
2022/06/30 09:08:05;;;;;;;3.47;2.45;;;;;;;35.13;22.50;99433.97;4397138;32;34417;-89
2022/06/30 09:10:56;;;;;;;7.32;2.50;;;;;;;35.20;22.20;99421.00;4408654;32;33086;-90
2022/06/30 09:13:25;;;;;;;4.15;2.42;;;;;;;35.11;22.13;99427.91;4382872;32;191027;-87
2022/06/30 09:15:59;;;;;;;3.42;3.08;;;;;;;35.32;21.99;99429.22;4408412;32;31118;-90
2022/06/30 09:18:28;;;;;;;6.30;2.85;;;;;;;35.20;22.68;99420.16;4407965;32;31632;-87
2022/06/30 09:21:20;;;;;;;7.60;2.62;;;;;;;35.45;22.19;99411.69;4401268;32;32102;-87
2022/06/30 09:23:52;;;;;;;6.10;2.35;;;;;;;35.44;23.60;99421.03;4408640;32;33952;-89
2022/06/30 09:26:22;;;;;;;4.60;2.13;;;;;;;35.57;22.73;99415.34;4395938;32;33432;-87
2022/06/30 09:28:55;;;;;;;6.28;2.70;;;;;;;35.68;22.82;99417.22;4383511;32;34283;-87
2022/06/30 09:31:46;;;;;;;5.18;2.75;;;;;;;35.78;23.12;99422.09;4401070;32;33005;-89
2022/06/30 09:34:19;;;;;;;5.37;2.40;;;;;;;35.57;22.65;99426.31;4414809;32;33695;-90
2022/06/30 09:36:50;;;;;;;3.47;2.30;;;;;;;35.87;22.00;99420.66;4402515;32;33753;-90
2022/06/30 09:39:20;;;;;;;8.25;2.58;;;;;;;36.24;20.11;99410.22;4395825;32;33187;-87
2022/06/30 09:41:55;;;;;;;3.05;2.12;;;;;;;36.34;20.60;99407.66;4395651;32;32590;-86
2022/06/30 09:44:29;;;;;;;4.00;2.95;;;;;;;36.65;20.01;99400.03;4408145;32;31980;-90
2022/06/30 09:46:59;;;;;;;8.35;2.28;;;;;;;36.02;19.36;99400.94;4395388;32;33070;-90
2022/06/30 09:49:33;;;;;;;4.85;2.62;;;;;;;36.10;20.07;99401.41;4394876;32;33052;-89
2022/06/30 09:52:26;;;;;;;4.45;1.90;;;;;;;35.82;22.01;99399.41;4407861;32;32571;-90
2022/06/30 09:55:06;;;;;;;3.62;2.30;;;;;;;36.51;20.30;99390.41;4409059;32;34677;-89
2022/06/30 09:57:50;;;;;;;5.65;2.35;;;;;;;35.90;21.37;99390.81;4397054;32;33675;-89
2022/06/30 10:00:19;;;;;;;4.03;2.00;;;;;;;36.38;20.75;99384.09;4397059;32;32879;-90
2022/06/30 10:02:49;;;;;;;2.65;1.90;;;;;;;36.23;22.35;99385.72;4397362;32;32212;-87
2022/06/30 10:05:19;;;;;;;4.10;2.80;;;;;;;36.31;20.92;99385.31;4422535;32;34159;-87
2022/06/30 10:07:49;;;;;;;4.35;2.45;;;;;;;36.60;21.96;99391.69;4408733;32;33355;-88
2022/06/30 10:10:20;;;;;;;7.07;2.20;;;;;;;36.96;21.71;99386.84;4385560;32;32950;-86
2022/06/30 10:12:49;;;;;;;4.20;2.53;;;;;;;36.55;21.75;99378.66;4435085;32;32828;-87
2022/06/30 10:15:21;;;;;;;4.40;1.95;;;;;;;36.27;21.35;99393.22;4397193;32;33213;-87
2022/06/30 10:17:57;;;;;;;2.08;1.80;;;;;;;36.38;20.45;99373.12;4422591;32;33598;-90
2022/06/30 10:20:28;;;;;;;3.55;2.60;;;;;;;35.92;22.10;99391.37;4397850;32;33883;-89
2022/06/30 10:23:02;;;;;;;4.60;2.13;;;;;;;35.99;21.13;99376.69;4397362;32;33432;-89
2022/06/30 10:25:35;;;;;;;5.37;2.10;;;;;;;36.07;20.44;99365.34;4408593;32;32829;-90
2022/06/30 10:28:10;;;;;;;3.28;1.92;;;;;;;35.91;19.81;99375.97;4409376;32;33307;-89
2022/06/30 10:31:15;;;;;;;7.65;2.30;;;;;;;36.16;21.48;99381.19;4409727;32;33551;-90
2022/06/30 10:34:15;;;;;;;2.62;1.83;;;;;;;36.50;20.94;99381.31;4392097;32;32813;-89
2022/06/30 10:37:17;;;;;;;5.80;1.95;;;;;;;36.64;19.77;99370.84;4398889;32;33966;-88
2022/06/30 10:39:51;;;;;;;4.28;1.98;;;;;;;37.09;20.11;99372.78;4409589;32;34118;-88
2022/06/30 10:42:49;;;;;;;5.80;1.90;;;;;;;36.80;19.08;99370.06;4398549;32;33343;-88
2022/06/30 10:45:25;;;;;;;2.75;1.95;;;;;;;37.38;18.30;99363.34;4407666;32;33991;-88
2022/06/30 10:47:59;;;;;;;2.67;1.87;;;;;;;37.67;17.75;99357.69;4408664;32;33123;-88
2022/06/30 10:50:33;;;;;;;6.25;2.03;;;;;;;37.68;18.42;99370.38;4407772;32;34399;-88
2022/06/30 10:53:07;;;;;;;6.35;2.00;;;;;;;38.16;18.32;99349.50;4392667;32;32874;-88
2022/06/30 10:56:02;;;;;;;5.75;2.22;;;;;;;37.99;16.92;99355.09;4409978;32;32346;-88
2022/06/30 10:58:31;;;;;;;4.18;2.10;;;;;;;37.97;18.41;99357.25;4397437;32;32682;-89
2022/06/30 11:01:04;;;;;;;2.53;1.83;;;;;;;38.07;18.93;99351.03;4408093;32;33369;-89
2022/06/30 11:03:50;;;;;;;3.70;1.77;;;;;;;37.95;17.21;99355.88;4398246;32;32499;-89
2022/06/30 11:06:19;;;;;;;6.72;2.20;;;;;;;38.13;17.52;99358.31;4408915;32;32416;-88
2022/06/30 11:08:48;;;;;;;2.08;1.77;;;;;;;38.24;15.97;99342.69;4422287;32;33823;-88
2022/06/30 11:11:19;;;;;;;7.05;1.85;;;;;;;37.56;18.02;99342.12;4396281;32;32996;-88
2022/06/30 11:14:02;;;;;;;2.97;1.58;;;;;;;38.14;16.48;99346.19;4421395;32;34167;-88
2022/06/30 11:16:32;;;;;;;4.60;1.48;;;;;;;38.18;16.33;99333.53;4422963;32;33324;-88
2022/06/30 11:19:06;;;;;;;4.50;1.60;;;;;;;38.00;16.83;99336.63;4422140;32;34370;-89
2022/06/30 11:21:43;;;;;;;2.90;1.60;;;;;;;37.90;16.65;99326.31;4410594;32;33316;-88
2022/06/30 11:24:16;;;;;;;2.22;1.67;;;;;;;37.82;17.51;99330.31;4410659;32;32946;-88
2022/06/30 11:29:39;;;;;;;5.72;1.95;;;;;;;38.21;16.14;99324.72;4411651;32;32532;-88
2022/06/30 11:32:08;;;;;;;6.70;2.10;;;;;;;38.07;18.35;99326.22;4409333;32;34012;-88
2022/06/30 11:34:38;;;;;;;5.57;1.85;;;;;;;38.67;17.27;99323.28;4433024;32;33774;-89
2022/06/30 11:37:11;;;;;;;4.97;1.73;;;;;;;38.39;18.30;99318.06;4394714;32;33854;-89
2022/06/30 11:39:40;;;;;;;10.07;2.00;;;;;;;38.12;17.19;99307.00;4407602;32;33222;-88
2022/06/30 11:42:11;;;;;;;7.80;2.40;;;;;;;38.28;17.30;99308.84;4423690;32;34469;-89
2022/06/30 11:44:45;;;;;;;3.33;1.90;;;;;;;38.01;16.12;99307.97;4421341;32;33628;-89
2022/06/30 11:47:17;;;;;;;1.83;1.50;;;;;;;38.45;15.90;99311.50;4393476;32;32291;-89
2022/06/30 11:49:47;;;;;;;7.25;1.60;;;;;;;38.00;15.13;99309.91;4399044;32;33712;-88
2022/06/30 11:52:22;;;;;;;6.10;1.85;;;;;;;37.96;15.14;99305.16;4419913;32;33708;-88
2022/06/30 11:54:56;;;;;;;4.18;1.70;;;;;;;38.01;15.72;99313.50;4422410;32;32906;-88
2022/06/30 11:57:26;;;;;;;6.72;2.03;;;;;;;38.45;19.69;99300.47;4406202;32;33739;-88
2022/06/30 12:00:00;;;;;;;2.65;1.52;;;;;;;38.66;15.95;99290.47;4406698;32;33518;-88
2022/06/30 12:02:30;;;;;;;1.52;1.35;;;;;;;38.45;15.10;99299.63;4393002;32;34852;-88
2022/06/30 12:05:04;;;;;;;2.45;2.08;;;;;;;38.31;15.94;99291.78;4409967;32;34683;-89
2022/06/30 12:07:43;;;;;;;5.55;1.90;;;;;;;38.74;15.93;99291.87;4395027;32;32163;-89
2022/06/30 12:12:58;;;;;;;5.10;1.50;;;;;;;39.30;13.89;99293.16;4423232;32;33560;-90
2022/06/30 12:15:31;;;;;;;2.20;1.67;;;;;;;38.14;16.54;99302.06;4407408;32;33784;-89
2022/06/30 12:18:03;;;;;;;4.62;1.98;;;;;;;38.70;16.79;99290.78;4415033;32;32124;-89